Time;durP1;ratioP1;P1;durP2;ratioP2;P2;SDS_P1;SDS_P2;PMS_P1;PMS_P2;Temp;Humidity;BMP_temperature;BMP_pressure;BME280_temperature;BME280_humidity;BME280_pressure;Samples;Min_cycle;Max_cycle;Signal;HPM_P1;HPM_P2
2021/07/21 00:00:25;;;;;;;7.90;2.20;;;15.20;99.90;;;;;;5079894;28;20030;-86
2021/07/21 00:02:50;;;;;;;6.70;2.47;;;15.80;99.90;;;;;;5079525;28;20024;-86
2021/07/21 00:05:19;;;;;;;9.40;1.63;;;15.70;99.90;;;;;;5097897;28;20381;-87
2021/07/21 00:07:45;;;;;;;5.15;1.67;;;15.70;99.90;;;;;;5079668;28;20094;-88
2021/07/21 00:10:14;;;;;;;6.50;1.80;;;15.50;99.90;;;;;;5079595;28;20478;-87
2021/07/21 00:15:26;;;;;;;5.50;2.60;;;15.70;99.90;;;;;;5099679;28;20047;-86
2021/07/21 00:18:01;;;;;;;9.38;2.58;;;15.60;99.90;;;;;;5081262;28;20107;-88
2021/07/21 00:20:30;;;;;;;5.78;2.53;;;15.60;99.90;;;;;;5081034;28;20566;-88
2021/07/21 00:22:56;;;;;;;7.28;2.28;;;15.50;99.90;;;;;;5080171;28;20035;-88
2021/07/21 00:25:21;;;;;;;8.38;2.42;;;15.50;99.90;;;;;;5080725;28;20024;-88
2021/07/21 00:27:47;;;;;;;7.22;2.55;;;15.40;99.90;;;;;;5078472;28;20024;-88
2021/07/21 00:30:16;;;;;;;14.75;2.58;;;15.30;99.90;;;;;;5079732;28;20028;-87
2021/07/21 00:32:42;;;;;;;4.55;1.90;;;15.30;99.90;;;;;;5097773;28;20044;-87
2021/07/21 00:35:10;;;;;;;5.63;2.13;;;15.20;99.90;;;;;;5080437;28;20024;-87
2021/07/21 00:37:36;;;;;;;6.97;2.47;;;15.00;99.90;;;;;;5081120;28;20028;-87
2021/07/21 00:40:04;;;;;;;7.05;1.75;;;15.00;99.90;;;;;;5081165;28;20031;-86
2021/07/21 00:42:29;;;;;;;5.75;1.73;;;13.30;99.90;;;;;;5078709;28;20024;-86
2021/07/21 00:44:55;;;;;;;7.57;2.10;;;14.60;99.90;;;;;;5078874;28;20389;-86
2021/07/21 00:47:21;;;;;;;6.13;2.63;;;14.60;99.90;;;;;;5096745;28;20024;-87
2021/07/21 00:49:46;;;;;;;4.80;1.95;;;15.10;99.90;;;;;;5079318;28;20032;-86
2021/07/21 00:52:12;;;;;;;6.70;2.17;;;16.70;99.90;;;;;;5079523;28;20521;-86
2021/07/21 00:54:39;;;;;;;7.85;2.05;;;14.50;99.90;;;;;;5078917;28;20035;-86
2021/07/21 00:57:05;;;;;;;4.93;1.80;;;15.00;99.90;;;;;;5079000;28;20020;-88
2021/07/21 00:59:34;;;;;;;7.00;2.13;;;14.70;99.90;;;;;;5097537;28;20049;-86
2021/07/21 01:02:01;;;;;;;7.47;2.10;;;14.70;99.90;;;;;;5078440;28;20540;-86
2021/07/21 01:04:29;;;;;;;5.20;2.22;;;15.00;99.90;;;;;;5097316;28;20043;-87
2021/07/21 01:06:56;;;;;;;5.55;2.20;;;15.00;99.90;;;;;;5079012;28;20016;-87
2021/07/21 01:09:22;;;;;;;5.13;1.98;;;13.10;99.90;;;;;;5078982;28;20469;-88
2021/07/21 01:12:01;;;;;;;8.82;2.28;;;15.00;99.90;;;;;;5095506;28;20085;-88
2021/07/21 01:14:42;;;;;;;6.35;2.47;;;14.80;99.90;;;;;;5077996;28;20058;-85
2021/07/21 01:17:15;;;;;;;5.45;2.22;;;14.80;99.90;;;;;;5096426;28;20374;-85
2021/07/21 01:20:22;;;;;;;7.93;2.83;;;14.70;99.90;;;;;;5078785;28;20084;-87
2021/07/21 01:22:57;;;;;;;5.93;2.60;;;14.70;99.90;;;;;;4978746;28;20027;-86
2021/07/21 01:25:34;;;;;;;8.23;3.28;;;14.70;99.90;;;;;;4975638;28;20031;-89
2021/07/21 01:28:02;;;;;;;7.05;2.47;;;14.60;99.90;;;;;;5057034;28;20065;-88
2021/07/21 01:30:31;;;;;;;6.20;2.35;;;14.60;99.90;;;;;;5078450;28;20035;-85
2021/07/21 01:33:14;;;;;;;4.18;1.60;;;14.60;99.90;;;;;;5097628;28;20024;-86
2021/07/21 01:35:52;;;;;;;6.68;2.33;;;14.60;99.90;;;;;;5100370;28;20036;-86
2021/07/21 01:38:48;;;;;;;7.27;2.13;;;14.50;99.90;;;;;;5101105;28;20016;-89
2021/07/21 01:41:18;;;;;;;6.15;2.03;;;14.50;99.90;;;;;;5054407;28;20278;-86
2021/07/21 01:43:47;;;;;;;7.20;2.45;;;14.50;99.90;;;;;;5080279;28;20031;-86
2021/07/21 01:46:13;;;;;;;5.22;2.13;;;14.50;99.90;;;;;;5079934;28;20122;-87
2021/07/21 01:48:42;;;;;;;8.00;3.10;;;14.50;99.90;;;;;;5079297;28;20054;-88
2021/07/21 01:51:10;;;;;;;6.25;2.70;;;14.40;99.90;;;;;;5075149;28;20439;-87
2021/07/21 01:53:37;;;;;;;6.77;2.20;;;14.30;99.90;;;;;;5079394;28;20401;-89
2021/07/21 01:56:08;;;;;;;9.35;2.75;;;14.40;99.90;;;;;;5078125;28;20277;-89
2021/07/21 01:58:36;;;;;;;5.63;2.22;;;14.50;99.90;;;;;;5077329;28;20393;-89
2021/07/21 02:01:04;;;;;;;9.55;3.10;;;13.10;99.90;;;;;;5077717;28;20115;-86
2021/07/21 02:03:38;;;;;;;9.93;3.42;;;14.50;99.90;;;;;;5095993;28;20024;-89
2021/07/21 02:06:06;;;;;;;7.25;2.92;;;14.50;99.90;;;;;;5078272;28;20093;-88
2021/07/21 02:08:33;;;;;;;10.20;3.13;;;13.90;99.90;;;;;;5096088;28;20487;-86
2021/07/21 02:11:01;;;;;;;9.52;2.75;;;14.50;99.90;;;;;;5097952;28;20035;-87
2021/07/21 02:13:28;;;;;;;6.78;2.70;;;14.40;99.90;;;;;;5077541;28;20114;-87
2021/07/21 02:15:54;;;;;;;8.02;2.75;;;14.50;99.90;;;;;;5078618;28;20028;-87
2021/07/21 02:18:21;;;;;;;9.05;3.05;;;14.20;99.90;;;;;;5077773;28;20107;-88
2021/07/21 02:20:48;;;;;;;9.93;3.25;;;14.30;99.90;;;;;;5078128;28;20242;-86
2021/07/21 02:23:18;;;;;;;5.60;2.40;;;14.40;99.90;;;;;;5096148;28;20504;-89
2021/07/21 02:25:45;;;;;;;7.55;2.65;;;16.60;99.90;;;;;;5077218;28;20020;-88
2021/07/21 02:28:11;;;;;;;6.03;2.45;;;15.20;99.90;;;;;;5077148;28;20035;-89
2021/07/21 02:30:37;;;;;;;8.48;2.50;;;15.70;99.90;;;;;;5076647;28;20032;-89
2021/07/21 02:33:14;;;;;;;9.45;3.25;;;14.30;99.90;;;;;;5094715;28;20024;-89
2021/07/21 02:35:40;;;;;;;7.90;1.80;;;14.20;99.90;;;;;;5077032;28;20020;-89
2021/07/21 02:38:06;;;;;;;6.57;2.58;;;14.80;99.90;;;;;;5077364;28;20034;-89
2021/07/21 02:40:32;;;;;;;9.90;2.95;;;13.40;99.90;;;;;;5094657;28;20027;-89
2021/07/21 02:42:59;;;;;;;7.35;2.63;;;15.00;99.90;;;;;;5077030;28;20027;-89
2021/07/21 02:45:25;;;;;;;8.32;2.88;;;14.10;99.90;;;;;;5076751;28;20031;-89
2021/07/21 02:47:51;;;;;;;9.10;3.22;;;14.10;99.90;;;;;;5077105;28;20111;-86
2021/07/21 02:50:18;;;;;;;9.55;3.33;;;14.00;99.90;;;;;;5057802;28;20064;-89
2021/07/21 02:52:55;;;;;;;9.00;3.08;;;15.90;99.90;;;;;;5078897;28;20078;-86
2021/07/21 02:56:05;;;;;;;6.70;2.45;;;16.50;99.90;;;;;;5078380;28;20027;-86
2021/07/21 02:58:34;;;;;;;10.40;3.60;;;14.10;99.90;;;;;;5082639;28;20036;-87
2021/07/21 03:01:02;;;;;;;12.40;3.67;;;14.10;99.90;;;;;;5096041;28;20024;-86
2021/07/21 03:03:30;;;;;;;10.70;3.83;;;14.10;99.90;;;;;;5077534;28;20032;-86
2021/07/21 03:06:02;;;;;;;11.00;3.50;;;14.10;99.90;;;;;;5077802;28;20020;-87
2021/07/21 03:08:29;;;;;;;12.05;3.40;;;14.10;99.90;;;;;;5077771;28;20073;-87
2021/07/21 03:10:57;;;;;;;8.88;3.10;;;12.60;99.90;;;;;;5096409;28;20126;-87
2021/07/21 03:13:29;;;;;;;8.00;3.30;;;14.00;99.90;;;;;;5052383;28;20020;-86
2021/07/21 03:15:55;;;;;;;9.18;3.50;;;14.00;99.90;;;;;;5077563;28;20481;-86
2021/07/21 03:18:26;;;;;;;11.48;4.22;;;13.90;99.90;;;;;;5077580;28;20028;-86
2021/07/21 03:20:55;;;;;;;10.20;3.58;;;13.90;99.90;;;;;;5077617;28;20044;-87
2021/07/21 03:23:23;;;;;;;14.18;4.40;;;13.90;99.90;;;;;;5097313;28;20028;-87
2021/07/21 03:25:52;;;;;;;10.57;4.23;;;13.90;99.90;;;;;;5082033;28;20028;-86
2021/07/21 03:28:17;;;;;;;9.18;4.05;;;14.30;99.90;;;;;;5081505;28;20131;-86
2021/07/21 03:30:43;;;;;;;13.77;3.28;;;17.10;99.90;;;;;;5098855;28;20016;-86
2021/07/21 03:33:11;;;;;;;10.23;3.40;;;13.80;99.90;;;;;;5121608;28;20036;-87
2021/07/21 03:35:38;;;;;;;9.00;3.60;;;16.20;99.90;;;;;;5121366;28;20040;-85
2021/07/21 03:38:06;;;;;;;10.02;4.13;;;13.70;99.90;;;;;;5095763;28;20039;-86
2021/07/21 03:40:33;;;;;;;8.35;3.85;;;16.30;99.90;;;;;;5083226;28;20055;-86
2021/07/21 03:42:59;;;;;;;10.88;3.58;;;13.80;99.90;;;;;;5084895;28;20031;-86
2021/07/21 03:45:29;;;;;;;8.82;3.67;;;13.50;99.90;;;;;;5103142;28;20016;-86
2021/07/21 03:47:56;;;;;;;10.77;4.00;;;15.50;99.90;;;;;;5083517;28;20036;-86
2021/07/21 03:50:23;;;;;;;10.18;3.90;;;17.20;99.90;;;;;;5084231;28;20027;-86
2021/07/21 03:52:51;;;;;;;7.72;2.85;;;13.70;99.90;;;;;;5101790;28;20032;-86
2021/07/21 03:55:21;;;;;;;7.03;3.20;;;13.40;99.90;;;;;;5083781;28;20528;-86
2021/07/21 03:57:47;;;;;;;9.30;3.33;;;13.90;99.90;;;;;;5083543;28;20030;-86
2021/07/21 04:00:16;;;;;;;8.25;2.97;;;11.00;99.90;;;;;;5082867;28;20073;-86
2021/07/21 04:02:42;;;;;;;;;;;13.70;99.90;;;;;;5081874;28;20024;-86
2021/07/21 04:05:13;;;;;;;8.95;3.75;;;13.50;99.90;;;;;;5080994;28;19981;-86
2021/07/21 04:07:40;;;;;;;8.18;3.95;;;13.70;99.90;;;;;;5081810;28;20077;-86
2021/07/21 04:10:07;;;;;;;11.07;3.55;;;13.60;99.90;;;;;;5081647;28;20043;-86
2021/07/21 04:12:40;;;;;;;9.27;3.15;;;14.70;99.90;;;;;;5081686;28;20039;-86
2021/07/21 04:15:07;;;;;;;8.05;3.17;;;13.60;99.90;;;;;;5081363;28;20027;-86
2021/07/21 04:17:35;;;;;;;10.23;3.30;;;13.60;99.90;;;;;;5098485;28;20032;-86
2021/07/21 04:20:03;;;;;;;12.02;3.17;;;13.70;99.90;;;;;;5081129;28;20058;-86
2021/07/21 04:22:29;;;;;;;11.40;3.33;;;13.70;99.90;;;;;;5080050;28;20492;-86
2021/07/21 04:24:57;;;;;;;10.48;3.13;;;12.50;99.90;;;;;;5080839;28;20359;-86
2021/07/21 04:27:23;;;;;;;7.80;2.87;;;16.80;99.90;;;;;;5080805;28;20028;-86
2021/07/21 04:29:50;;;;;;;7.53;3.08;;;15.50;99.90;;;;;;5081597;28;20273;-86
2021/07/21 04:32:16;;;;;;;10.10;3.78;;;17.00;99.90;;;;;;5101225;28;20099;-86
2021/07/21 04:34:44;;;;;;;9.52;3.10;;;13.80;99.90;;;;;;5100095;28;20460;-86
2021/07/21 04:37:10;;;;;;;9.95;3.35;;;15.50;99.90;;;;;;5083958;28;20024;-86
2021/07/21 04:39:36;;;;;;;10.18;3.55;;;13.50;99.90;;;;;;5082975;28;20442;-86
2021/07/21 04:42:03;;;;;;;7.30;2.70;;;16.40;99.90;;;;;;5100669;28;20023;-87
2021/07/21 04:44:30;;;;;;;9.45;3.70;;;13.90;99.90;;;;;;5100975;28;20021;-87
2021/07/21 04:46:58;;;;;;;10.07;3.38;;;16.50;99.90;;;;;;5100424;28;20403;-86
2021/07/21 04:49:25;;;;;;;8.43;3.50;;;17.20;99.90;;;;;;5082561;28;20020;-86
2021/07/21 04:51:55;;;;;;;10.38;3.47;;;14.00;99.90;;;;;;5082419;28;20020;-86
2021/07/21 04:54:21;;;;;;;8.18;2.97;;;13.90;99.90;;;;;;5100783;28;20031;-86
2021/07/21 04:56:47;;;;;;;10.30;3.90;;;14.10;99.90;;;;;;5081617;28;20417;-86
2021/07/21 04:59:13;;;;;;;9.18;3.40;;;14.20;99.90;;;;;;5082043;28;20170;-86
2021/07/21 05:01:39;;;;;;;9.45;3.90;;;14.20;99.90;;;;;;5080301;28;20024;-86
2021/07/21 05:04:06;;;;;;;17.73;3.45;;;14.30;99.90;;;;;;5080146;28;20101;-86
2021/07/21 05:06:32;;;;;;;10.57;3.95;;;14.30;99.90;;;;;;5081330;28;20048;-86
2021/07/21 05:08:58;;;;;;;9.05;3.25;;;14.30;99.90;;;;;;5099841;28;20027;-86
2021/07/21 05:11:24;;;;;;;10.25;3.78;;;14.50;99.90;;;;;;5080458;28;20123;-86
2021/07/21 05:13:50;;;;;;;12.05;4.72;;;14.60;99.90;;;;;;5080724;28;20477;-86
2021/07/21 05:16:16;;;;;;;12.80;4.43;;;14.60;99.90;;;;;;5098713;28;20126;-86
2021/07/21 05:18:42;;;;;;;11.82;4.95;;;14.70;99.90;;;;;;5081009;28;20116;-86
2021/07/21 05:21:08;;;;;;;9.18;3.53;;;14.80;99.90;;;;;;5099116;28;20020;-86
2021/07/21 05:23:34;;;;;;;9.07;4.05;;;14.90;99.90;;;;;;5080699;28;20377;-85
2021/07/21 05:26:00;;;;;;;11.80;4.65;;;14.80;99.90;;;;;;5099335;28;20012;-85
2021/07/21 05:28:26;;;;;;;10.75;3.60;;;15.70;99.90;;;;;;5081684;28;20023;-85
2021/07/21 05:30:52;;;;;;;10.25;4.25;;;15.20;99.90;;;;;;5081731;28;20436;-85
2021/07/21 05:33:18;;;;;;;10.27;3.92;;;15.40;99.90;;;;;;5081994;28;20058;-85
2021/07/21 05:35:44;;;;;;;14.40;4.43;;;14.70;99.90;;;;;;5081009;28;20028;-85
2021/07/21 05:38:11;;;;;;;8.05;3.53;;;14.70;99.90;;;;;;5081367;28;20051;-85
2021/07/21 05:40:37;;;;;;;13.85;3.95;;;15.70;99.90;;;;;;5081147;28;20020;-85
2021/07/21 05:43:04;;;;;;;12.10;4.25;;;17.20;99.90;;;;;;5096796;28;20039;-85
2021/07/21 05:45:30;;;;;;;9.55;3.95;;;16.60;99.90;;;;;;5101755;28;20016;-86
2021/07/21 05:47:55;;;;;;;6.75;2.88;;;16.00;99.90;;;;;;5102019;28;20031;-85
2021/07/21 05:50:21;;;;;;;9.45;4.03;;;16.10;99.90;;;;;;5101774;28;20032;-85
2021/07/21 05:52:46;;;;;;;13.57;4.80;;;16.20;99.90;;;;;;5115120;28;20060;-85
2021/07/21 05:55:13;;;;;;;10.50;4.63;;;17.70;99.90;;;;;;5103451;28;20059;-84
2021/07/21 05:57:38;;;;;;;7.95;3.72;;;16.50;99.90;;;;;;5082446;28;20031;-85
2021/07/21 06:00:06;;;;;;;11.25;4.10;;;16.70;99.90;;;;;;5101041;28;20020;-85
2021/07/21 06:02:31;;;;;;;12.18;4.50;;;16.80;99.90;;;;;;5081654;28;20020;-85
2021/07/21 06:04:57;;;;;;;15.63;4.90;;;16.90;99.90;;;;;;5081040;28;20072;-85
2021/07/21 06:07:22;;;;;;;8.65;4.00;;;17.00;99.90;;;;;;5099002;28;20056;-85
2021/07/21 06:09:48;;;;;;;7.80;3.17;;;17.10;99.90;;;;;;5098113;28;20032;-86
2021/07/21 06:12:14;;;;;;;11.68;4.80;;;17.30;99.90;;;;;;5080135;28;20016;-86
2021/07/21 06:14:39;;;;;;;7.60;3.40;;;17.50;99.90;;;;;;5080769;28;20020;-88
2021/07/21 06:17:05;;;;;;;10.02;3.90;;;17.70;99.90;;;;;;5079655;28;20047;-87
2021/07/21 06:19:33;;;;;;;10.57;3.72;;;20.00;99.90;;;;;;5080378;28;20434;-87
2021/07/21 06:22:00;;;;;;;9.43;3.40;;;17.90;99.90;;;;;;5080398;28;20016;-88
2021/07/21 06:24:26;;;;;;;9.75;3.55;;;18.10;99.90;;;;;;5098419;28;20078;-87
2021/07/21 06:26:52;;;;;;;9.63;3.63;;;18.30;99.90;;;;;;5080055;28;20385;-89
2021/07/21 06:29:18;;;;;;;11.02;3.05;;;18.50;99.90;;;;;;5075289;28;20024;-87
2021/07/21 06:31:43;;;;;;;11.05;3.60;;;18.60;99.90;;;;;;5091608;28;20047;-87
2021/07/21 06:34:09;;;;;;;9.27;3.40;;;18.80;99.90;;;;;;5078810;28;20034;-84
2021/07/21 06:36:34;;;;;;;8.32;3.47;;;19.00;99.90;;;;;;5079357;28;20064;-85
2021/07/21 06:39:00;;;;;;;9.45;3.83;;;18.80;99.90;;;;;;5079476;28;20020;-84
2021/07/21 06:41:25;;;;;;;7.47;2.85;;;21.40;99.90;;;;;;5079725;28;20020;-85
2021/07/21 06:43:52;;;;;;;10.35;4.32;;;21.40;99.90;;;;;;5098970;28;20047;-85
2021/07/21 06:46:19;;;;;;;8.05;3.35;;;19.20;99.90;;;;;;5079617;28;20016;-85
2021/07/21 06:48:45;;;;;;;10.10;3.42;;;19.20;99.90;;;;;;5079191;28;20405;-85
2021/07/21 06:51:11;;;;;;;8.63;3.35;;;19.30;99.90;;;;;;5080081;28;20035;-86
2021/07/21 06:53:36;;;;;;;7.65;2.75;;;19.30;99.90;;;;;;5098055;28;20036;-85
2021/07/21 06:56:03;;;;;;;10.35;3.25;;;21.20;99.90;;;;;;5097139;28;20485;-85
2021/07/21 06:58:29;;;;;;;11.07;3.20;;;19.50;99.90;;;;;;5097957;28;20043;-84
2021/07/21 07:00:55;;;;;;;7.10;3.03;;;19.40;99.90;;;;;;5082425;28;20469;-85
2021/07/21 07:03:21;;;;;;;11.75;3.35;;;19.80;99.90;;;;;;5082587;28;20105;-85
2021/07/21 07:05:48;;;;;;;6.88;2.67;;;19.80;99.90;;;;;;5083407;28;20477;-85
2021/07/21 07:08:14;;;;;;;11.38;2.88;;;19.80;99.90;;;;;;5082985;28;20059;-86
2021/07/21 07:10:40;;;;;;;6.97;2.47;;;20.10;99.90;;;;;;5082536;28;20035;-85
2021/07/21 07:13:05;;;;;;;5.43;2.08;;;20.10;99.90;;;;;;5083074;28;20028;-85
2021/07/21 07:15:32;;;;;;;6.57;2.42;;;20.30;99.90;;;;;;5101341;28;20028;-85
2021/07/21 07:17:58;;;;;;;5.60;2.15;;;20.40;99.90;;;;;;5082279;28;20066;-85
2021/07/21 07:20:24;;;;;;;7.80;2.22;;;20.40;99.90;;;;;;5082446;28;20031;-85
2021/07/21 07:22:50;;;;;;;8.27;2.40;;;20.60;99.90;;;;;;5100303;28;20020;-85
2021/07/21 07:25:16;;;;;;;7.55;2.30;;;20.60;99.90;;;;;;5100750;28;20381;-85
2021/07/21 07:27:42;;;;;;;6.13;1.60;;;21.30;99.90;;;;;;5100497;28;20032;-85
2021/07/21 07:30:10;;;;;;;4.22;1.63;;;21.70;99.90;;;;;;5081917;28;20103;-85
2021/07/21 07:32:36;;;;;;;;;;;21.00;99.90;;;;;;5103979;28;20545;-86
2021/07/21 07:35:02;;;;;;;10.63;1.60;;;21.30;99.70;;;;;;5088121;28;19946;-85
2021/07/21 07:37:28;;;;;;;4.80;1.58;;;21.20;98.40;;;;;;5085580;28;20028;-86
2021/07/21 07:39:54;;;;;;;4.07;1.25;;;21.30;96.40;;;;;;5103345;28;20020;-86
2021/07/21 07:42:19;;;;;;;7.68;1.92;;;22.90;96.50;;;;;;5085302;28;20050;-85
2021/07/21 07:44:45;;;;;;;6.95;2.15;;;21.40;95.50;;;;;;5102498;28;20123;-86
2021/07/21 07:47:11;;;;;;;5.20;2.05;;;21.50;95.20;;;;;;5084144;28;20026;-86
2021/07/21 07:49:36;;;;;;;4.82;1.42;;;21.60;94.70;;;;;;5083880;28;20059;-85
2021/07/21 07:52:03;;;;;;;5.30;2.03;;;21.70;94.50;;;;;;5098210;28;20016;-85
2021/07/21 07:54:28;;;;;;;3.97;1.33;;;21.80;93.00;;;;;;5103459;28;20027;-85
2021/07/21 07:56:54;;;;;;;4.35;1.95;;;24.80;95.70;;;;;;5103458;28;20024;-85
2021/07/21 07:59:20;;;;;;;4.80;1.67;;;21.90;94.20;;;;;;5089758;28;20127;-85
2021/07/21 08:01:45;;;;;;;6.70;2.38;;;23.50;93.70;;;;;;5064700;28;20393;-83
2021/07/21 08:04:11;;;;;;;5.65;2.38;;;22.20;91.60;;;;;;5065105;28;20493;-86
2021/07/21 08:06:36;;;;;;;4.70;1.77;;;22.40;92.00;;;;;;5087767;28;20027;-85
2021/07/21 08:09:12;;;;;;;4.63;1.90;;;22.30;92.60;;;;;;5079536;28;20127;-85
2021/07/21 08:11:40;;;;;;;5.13;2.10;;;22.60;92.40;;;;;;5070845;28;20397;-85
2021/07/21 08:14:05;;;;;;;2.33;1.17;;;22.50;91.40;;;;;;5087306;28;20024;-85
2021/07/21 08:16:31;;;;;;;4.82;1.67;;;23.30;91.40;;;;;;5082586;28;20031;-87
2021/07/21 08:18:57;;;;;;;5.35;1.88;;;22.60;89.10;;;;;;5081970;28;20064;-85
2021/07/21 08:21:22;;;;;;;5.75;2.28;;;22.80;88.80;;;;;;5099849;28;20016;-85
2021/07/21 08:23:48;;;;;;;5.57;1.77;;;22.80;87.50;;;;;;5081589;28;20020;-85
2021/07/21 08:26:13;;;;;;;2.58;1.13;;;22.80;87.20;;;;;;5099556;28;20054;-85
2021/07/21 08:28:39;;;;;;;2.53;1.10;;;22.80;85.10;;;;;;5081304;28;20442;-85
2021/07/21 08:31:05;;;;;;;2.92;0.85;;;22.90;85.20;;;;;;5081576;28;20477;-86
2021/07/21 08:33:31;;;;;;;5.40;1.33;;;22.90;88.00;;;;;;5099960;28;20369;-85
2021/07/21 08:35:56;;;;;;;3.88;1.20;;;25.10;86.50;;;;;;5081423;28;20040;-85
2021/07/21 08:38:22;;;;;;;3.60;1.25;;;23.10;83.70;;;;;;5081201;28;20024;-85
2021/07/21 08:40:48;;;;;;;2.90;1.00;;;24.80;83.60;;;;;;5081933;28;20603;-84
2021/07/21 08:43:15;;;;;;;2.53;1.25;;;23.30;78.00;;;;;;5080007;28;20012;-86
2021/07/21 08:45:41;;;;;;;4.65;1.83;;;23.30;76.00;;;;;;5099152;28;20020;-85
2021/07/21 08:48:07;;;;;;;2.80;1.38;;;23.30;75.40;;;;;;5099567;28;20141;-85
2021/07/21 08:50:32;;;;;;;3.50;1.58;;;24.50;78.10;;;;;;5098621;28;20027;-86
2021/07/21 08:52:58;;;;;;;3.60;1.40;;;23.50;77.00;;;;;;5080563;28;20028;-86
2021/07/21 08:55:24;;;;;;;5.32;1.60;;;25.00;74.50;;;;;;5098662;28;20070;-83
2021/07/21 08:57:51;;;;;;;10.07;1.83;;;23.50;73.30;;;;;;5080366;28;20024;-86
2021/07/21 09:00:17;;;;;;;6.38;1.98;;;23.50;73.20;;;;;;5080871;28;20607;-86
2021/07/21 09:02:44;;;;;;;3.55;1.13;;;23.60;73.00;;;;;;5081276;28;20016;-87
2021/07/21 09:05:12;;;;;;;3.85;1.30;;;23.70;74.40;;;;;;5099588;28;20023;-88
2021/07/21 09:07:40;;;;;;;2.78;1.30;;;23.70;71.40;;;;;;5098449;28;20043;-87
2021/07/21 09:10:09;;;;;;;4.22;1.95;;;23.80;73.00;;;;;;5079604;28;20020;-84
2021/07/21 09:12:38;;;;;;;8.52;2.40;;;24.20;74.00;;;;;;5080960;28;20019;-87
2021/07/21 09:15:08;;;;;;;3.35;1.38;;;24.00;76.90;;;;;;5079924;28;20020;-86
2021/07/21 09:17:33;;;;;;;3.90;1.25;;;24.00;74.20;;;;;;5099585;28;20040;-86
2021/07/21 09:19:59;;;;;;;5.25;1.70;;;24.10;75.50;;;;;;5080545;28;20059;-86
2021/07/21 09:22:28;;;;;;;7.40;2.22;;;25.10;76.30;;;;;;5080715;28;20019;-88
2021/07/21 09:25:13;;;;;;;4.40;2.13;;;23.80;71.90;;;;;;5080166;28;20044;-86
2021/07/21 09:27:40;;;;;;;4.25;1.20;;;23.90;70.40;;;;;;5080790;28;20109;-87
2021/07/21 09:30:08;;;;;;;4.60;1.73;;;23.80;72.20;;;;;;5083273;28;20012;-89
2021/07/21 09:32:56;;;;;;;4.90;1.98;;;23.80;71.80;;;;;;5082068;28;20055;-87
2021/07/21 09:35:23;;;;;;;4.15;1.38;;;25.00;72.60;;;;;;5085194;28;20047;-88
2021/07/21 09:37:50;;;;;;;8.48;1.30;;;24.10;72.40;;;;;;5093806;28;20049;-87
2021/07/21 09:40:17;;;;;;;3.15;1.23;;;24.30;70.80;;;;;;5099249;28;20028;-87
2021/07/21 09:42:43;;;;;;;8.13;1.65;;;26.00;71.00;;;;;;5080205;28;20031;-87
2021/07/21 09:45:14;;;;;;;5.15;1.95;;;24.60;67.70;;;;;;5080538;28;20012;-87
2021/07/21 09:47:52;;;;;;;6.43;1.55;;;24.50;66.00;;;;;;5079956;28;20012;-87
2021/07/21 09:50:24;;;;;;;2.60;1.00;;;24.60;67.40;;;;;;5067129;28;20028;-87
2021/07/21 09:53:04;;;;;;;6.03;2.10;;;24.60;66.30;;;;;;5080200;28;20088;-88
2021/07/21 09:55:30;;;;;;;2.65;1.05;;;24.80;65.40;;;;;;5080391;28;20391;-87
2021/07/21 09:58:00;;;;;;;4.20;1.60;;;24.90;67.40;;;;;;5097394;28;20024;-87
2021/07/21 10:00:35;;;;;;;6.53;2.40;;;25.10;66.20;;;;;;5079541;28;20035;-87
2021/07/21 10:03:12;;;;;;;5.55;2.25;;;25.10;64.90;;;;;;5080255;28;20047;-87
2021/07/21 10:05:54;;;;;;;7.65;2.72;;;25.00;62.60;;;;;;5098209;28;20074;-87
2021/07/21 10:08:26;;;;;;;3.60;1.52;;;25.00;61.30;;;;;;5078156;28;20097;-86
2021/07/21 10:10:51;;;;;;;6.93;2.25;;;25.00;63.40;;;;;;5097126;28;20047;-87
2021/07/21 10:13:17;;;;;;;6.10;1.60;;;25.10;61.70;;;;;;5078420;28;20036;-88
2021/07/21 10:15:45;;;;;;;4.93;2.42;;;25.70;63.30;;;;;;5080392;28;20058;-87
2021/07/21 10:18:17;;;;;;;5.82;2.10;;;26.50;63.60;;;;;;5097799;28;20024;-86
2021/07/21 10:20:44;;;;;;;6.80;2.25;;;24.80;61.70;;;;;;5078997;28;20428;-87
2021/07/21 10:23:12;;;;;;;3.85;1.70;;;24.80;61.90;;;;;;5097317;28;20350;-86
2021/07/21 10:25:38;;;;;;;2.88;1.30;;;24.80;62.10;;;;;;5077617;28;20021;-86
2021/07/21 10:28:05;;;;;;;6.43;2.50;;;25.10;66.10;;;;;;5079141;28;20074;-87
2021/07/21 10:30:32;;;;;;;4.05;1.45;;;24.60;64.40;;;;;;5097054;28;20028;-85
2021/07/21 10:32:58;;;;;;;5.85;2.17;;;25.40;62.50;;;;;;5078935;28;20036;-86
2021/07/21 10:35:28;;;;;;;7.85;2.13;;;25.40;58.70;;;;;;5097105;28;20027;-87
2021/07/21 10:37:54;;;;;;;4.80;1.75;;;25.50;62.50;;;;;;5079513;28;20028;-85
2021/07/21 10:40:25;;;;;;;6.35;1.58;;;25.90;62.40;;;;;;5078196;28;20047;-88
2021/07/21 10:42:53;;;;;;;7.63;1.65;;;26.20;59.80;;;;;;5096064;28;20103;-85
2021/07/21 10:45:22;;;;;;;4.88;1.50;;;26.40;60.80;;;;;;5099158;28;20404;-86
2021/07/21 10:47:55;;;;;;;4.15;1.52;;;26.70;59.20;;;;;;5041034;28;20517;-86
2021/07/21 10:50:40;;;;;;;4.63;1.60;;;27.10;57.60;;;;;;5060924;28;20040;-86
2021/07/21 10:59:13;;;;;;;4.18;1.52;;;26.40;57.70;;;;;;5096864;28;20086;-87
2021/07/21 11:01:47;;;;;;;6.72;2.20;;;26.60;58.20;;;;;;5079366;28;20047;-87
2021/07/21 11:04:13;;;;;;;5.13;1.55;;;26.60;56.30;;;;;;5078386;28;20048;-86
2021/07/21 11:06:50;;;;;;;5.25;1.77;;;26.50;55.60;;;;;;5083211;28;20126;-87
2021/07/21 11:09:26;;;;;;;4.35;2.03;;;26.50;58.30;;;;;;5096128;28;20043;-88
2021/07/21 11:11:56;;;;;;;5.32;2.00;;;27.00;59.60;;;;;;5080202;28;20478;-88
2021/07/21 11:14:27;;;;;;;7.63;2.45;;;27.10;54.80;;;;;;5098960;28;20042;-87
2021/07/21 11:16:55;;;;;;;2.80;1.42;;;26.90;56.10;;;;;;5080229;28;20034;-86
2021/07/21 11:19:42;;;;;;;4.82;1.77;;;26.70;56.10;;;;;;5080524;28;20019;-86
2021/07/21 11:22:10;;;;;;;2.92;1.55;;;27.00;58.10;;;;;;5079729;28;20035;-86
2021/07/21 11:25:12;;;;;;;3.60;1.67;;;27.50;61.90;;;;;;5080681;28;20082;-88
2021/07/21 11:27:43;;;;;;;4.72;1.77;;;27.80;60.30;;;;;;5079606;28;20070;-87
2021/07/21 11:30:45;;;;;;;7.25;1.50;;;28.40;58.00;;;;;;5078959;28;20028;-88
2021/07/21 11:33:49;;;;;;;5.32;2.03;;;28.80;56.10;;;;;;5085525;28;20036;-87
2021/07/21 11:36:44;;;;;;;4.72;1.00;;;29.20;55.80;;;;;;5100119;28;20408;-88
2021/07/21 11:39:35;;;;;;;6.55;1.98;;;29.50;52.30;;;;;;5080055;28;20032;-85
2021/07/21 11:42:02;;;;;;;7.25;2.53;;;29.80;54.10;;;;;;5066476;28;20031;-86
2021/07/21 11:44:40;;;;;;;5.50;2.30;;;29.80;50.70;;;;;;5081194;28;20024;-86
2021/07/21 11:47:13;;;;;;;5.72;1.77;;;29.40;50.10;;;;;;5083052;28;20022;-86
2021/07/21 11:49:47;;;;;;;5.50;1.92;;;29.10;50.70;;;;;;5082651;28;20393;-86
2021/07/21 11:52:13;;;;;;;7.57;1.98;;;28.50;52.20;;;;;;5092680;28;20098;-87
2021/07/21 11:54:40;;;;;;;5.30;2.30;;;28.50;54.60;;;;;;5081077;28;20388;-86
2021/07/21 11:57:07;;;;;;;6.15;2.33;;;28.50;52.10;;;;;;5081238;28;20063;-85
2021/07/21 11:59:34;;;;;;;5.10;2.10;;;27.80;51.30;;;;;;5081950;28;20024;-86
2021/07/21 12:02:10;;;;;;;4.57;2.40;;;28.20;53.60;;;;;;5100495;28;20024;-86
2021/07/21 12:04:41;;;;;;;5.78;2.10;;;28.40;53.20;;;;;;5082255;28;20448;-86
2021/07/21 12:07:07;;;;;;;4.38;1.73;;;30.20;53.40;;;;;;5100025;28;20050;-85
2021/07/21 12:09:36;;;;;;;4.28;1.52;;;28.60;52.60;;;;;;5081545;28;20435;-86
2021/07/21 12:12:04;;;;;;;6.47;1.77;;;28.70;54.20;;;;;;5082274;28;20555;-87
2021/07/21 12:14:30;;;;;;;4.80;1.05;;;28.50;54.60;;;;;;5100438;28;20530;-86
2021/07/21 12:17:23;;;;;;;4.63;1.60;;;28.10;54.70;;;;;;5100300;28;20032;-86
2021/07/21 12:19:53;;;;;;;4.40;1.58;;;28.30;54.80;;;;;;5055592;28;20128;-88
2021/07/21 12:22:19;;;;;;;3.35;1.30;;;28.20;53.00;;;;;;5067207;28;20020;-85
2021/07/21 12:24:47;;;;;;;6.40;2.20;;;28.10;53.20;;;;;;5100741;28;20526;-86
2021/07/21 12:27:14;;;;;;;;;;;28.20;54.10;;;;;;5082273;28;20016;-86
2021/07/21 12:29:41;;;;;;;4.35;1.30;;;28.60;55.20;;;;;;5101003;28;19904;-86
2021/07/21 12:32:12;;;;;;;3.22;1.50;;;29.00;55.10;;;;;;5081982;28;20112;-86
2021/07/21 12:34:46;;;;;;;4.88;1.83;;;29.30;52.60;;;;;;5081506;28;20031;-86
2021/07/21 12:37:17;;;;;;;2.95;1.20;;;29.60;51.50;;;;;;5080941;28;20026;-85
2021/07/21 12:39:45;;;;;;;5.15;1.73;;;29.90;50.10;;;;;;5082296;28;20080;-85
2021/07/21 12:42:17;;;;;;;3.83;1.23;;;30.10;49.50;;;;;;5092938;28;20026;-85
2021/07/21 12:44:48;;;;;;;3.92;1.02;;;30.00;51.50;;;;;;5101614;28;20069;-86
2021/07/21 12:47:14;;;;;;;2.90;1.27;;;28.60;48.10;;;;;;5098732;28;20035;-85
2021/07/21 12:49:41;;;;;;;6.18;1.85;;;29.90;50.50;;;;;;5081578;28;20024;-87
2021/07/21 12:52:10;;;;;;;5.60;2.15;;;30.30;51.30;;;;;;5081418;28;20114;-85
2021/07/21 12:54:37;;;;;;;4.18;0.98;;;30.50;51.80;;;;;;5099297;28;20031;-86
2021/07/21 12:57:04;;;;;;;3.05;1.08;;;30.60;53.40;;;;;;5098297;28;20023;-86
2021/07/21 12:59:42;;;;;;;4.65;1.40;;;31.00;52.10;;;;;;5098528;28;20084;-87
2021/07/21 13:02:21;;;;;;;4.25;1.60;;;31.10;51.60;;;;;;5079061;28;20025;-86